Terminal Aerodrome Forecast
Issued by NWS

Home | Current Version | Previous Version | Text Only | Print | Product List | Glossary On
Versions: 1 2 3 4 5 6 7 8 9 10 11 12 13 14 15
000
FTUS46 KSTO 220500
TAFSMF
TAF
KSMF 220527Z 2206/2306 18009KT P6SM SCT050
     FM221400 16007KT P6SM OVC050
      TEMPO 2214/2218 BKN025
     FM230000 19013G20KT P6SM BKN100=

USA.gov is the U.S. government's official web portal to all federal, state and local government web resources and services.